Details From LEGE - Girona
To LEDA - Lleida
Flight Number -
Tags generated
Created
Modified
Stats Distance 100 nm / 186 km
Max Altitude 10,100 ft / 3,078 m
Waypoints 3
Social Downloads 0
Likes 0
Share VATSIM

Download

Looking for another format? Having issues loading an existing format? Contact us
Advertisement - Login to hide

Notes

Basic altitude profile: - Ascent Rate: 2500ft/min - Ascent Speed: 250kts - Cruise Altitude: 18000ft - Cruise Speed: 420kts - Descent Rate: 1500ft/min - Descent Speed: 250kts Options: - Use NATs: no - Use PACOTS: yes - Use low airways: yes - Use high airways: no

Route

LEGE MAMUK LEDA

ID Type Via Altitude Latitude Longitude Leg Dist Tot Dist Heading (true) Name
O LEGE APT - 0 ft / 0 m 41.90520˚ 2.76213˚ - 0 nm - Girona
MAMUK FIX - 10,100 ft / 3,078 m 41.83676˚ 2.07209˚ 31 nm 31 nm 263° / 262° -
O LEDA APT - 0 ft / 0 m 41.72821˚ 0.53501˚ 69 nm 100 nm 265° / 264° Lleida

Altitude Profile

Advertisement - Login to hide

LEGE

Details ICAO LEGE (GRO)
Name Girona
Region Spain
Timezone Europe/Madrid (UTC+2.0)
Stats Elevation 403 ft / 123 m (AMSL)
Location 41.905202° 2.762133°
Runways 1
Magnetic Variation 1.027° E

METAR

LEGE 221200Z 16009KT 120V210 9999 FEW030TCU SCT050 23/14 Q1013

Decode

TAF

TAF LEGE 221100Z 2212/2312 VRB04KT 9999 SCT035 TX25/2213Z TN12/2306Z TEMPO 2212/2217 18010KT PROB40 TEMPO 2212/2219 VRB20G30KT 4000 TSRA SCT030CB PROB40 TEMPO 2300/2306 2000 BR BECMG 2309/2312 18010KT

Decode

Departure Runways

ID Width Length Bearing (true) Bearing (mag) Surface Threshold Offset Overrun Length
02 148 ft / 45 m 7,880 ft / 2,402 m 15.50° 14.47° Asphalt 0 ft / 0 m 210 ft / 64 m
20 148 ft / 45 m 7,880 ft / 2,402 m 195.50° 194.47° Asphalt 0 ft / 0 m 200 ft / 61 m

LEDA

Details ICAO LEDA (ILD)
Name Lleida
Region Spain
Timezone Europe/Madrid (UTC+2.0)
Stats Elevation 1,151 ft / 351 m (AMSL)
Location 41.728212° 0.535013°
Runways 1
Magnetic Variation 0.464° E

METAR

LEDA 221200Z 23004KT 9999 SCT035 22/12 Q1014

Decode

TAF

TAF LEDA 220800Z 2209/2309 VRB03KT 9999 FEW040 TX26/2214Z TN13/2306Z BECMG 2214/2217 09008KT PROB40 TEMPO 2212/2219 4000 TSRA BKN025 FEW030CB

Decode

Destination Runways

ID Width Length Bearing (true) Bearing (mag) Surface Threshold Offset Overrun Length
13 200 ft / 61 m 7,901 ft / 2,408 m 133.44° 132.98° Asphalt 0 ft / 0 m 0 ft / 0 m
31 200 ft / 61 m 7,901 ft / 2,408 m 313.46° 313.00° Asphalt 295 ft / 90 m 0 ft / 0 m

Popular Alternatives